sensor_id;sensor_type;location;lat;lon;timestamp;temperature;humidity
23562;DHT22;11959;49.418;8.728;2022-10-16T00:00:39;16.60;99.90
23562;DHT22;11959;49.418;8.728;2022-10-16T00:03:06;16.60;99.90
23562;DHT22;11959;49.418;8.728;2022-10-16T00:05:32;16.60;99.90
23562;DHT22;11959;49.418;8.728;2022-10-16T00:07:58;16.60;99.90
23562;DHT22;11959;49.418;8.728;2022-10-16T00:10:24;16.60;99.90
23562;DHT22;11959;49.418;8.728;2022-10-16T00:12:50;16.70;99.90
23562;DHT22;11959;49.418;8.728;2022-10-16T00:15:16;16.70;99.90
23562;DHT22;11959;49.418;8.728;2022-10-16T00:17:43;16.70;99.90
23562;DHT22;11959;49.418;8.728;2022-10-16T00:20:08;16.70;99.90
23562;DHT22;11959;49.418;8.728;2022-10-16T00:22:34;16.70;99.90
23562;DHT22;11959;49.418;8.728;2022-10-16T00:24:59;16.70;99.90
23562;DHT22;11959;49.418;8.728;2022-10-16T00:27:25;16.70;99.90
23562;DHT22;11959;49.418;8.728;2022-10-16T00:29:51;16.80;99.90
23562;DHT22;11959;49.418;8.728;2022-10-16T00:32:18;16.80;99.90
23562;DHT22;11959;49.418;8.728;2022-10-16T00:34:44;16.80;99.90
23562;DHT22;11959;49.418;8.728;2022-10-16T00:37:10;16.70;99.90
23562;DHT22;11959;49.418;8.728;2022-10-16T00:39:35;16.70;99.90
23562;DHT22;11959;49.418;8.728;2022-10-16T00:42:01;16.70;99.90
23562;DHT22;11959;49.418;8.728;2022-10-16T00:44:47;16.70;99.90
23562;DHT22;11959;49.418;8.728;2022-10-16T00:47:27;16.70;99.90
23562;DHT22;11959;49.418;8.728;2022-10-16T00:50:00;16.60;99.90
23562;DHT22;11959;49.418;8.728;2022-10-16T00:52:27;16.60;99.90
23562;DHT22;11959;49.418;8.728;2022-10-16T00:54:53;16.60;99.90
23562;DHT22;11959;49.418;8.728;2022-10-16T00:57:19;16.60;99.90
23562;DHT22;11959;49.418;8.728;2022-10-16T00:59:45;16.60;99.90
23562;DHT22;11959;49.418;8.728;2022-10-16T01:02:14;16.60;99.90
23562;DHT22;11959;49.418;8.728;2022-10-16T01:04:46;16.60;99.90
23562;DHT22;11959;49.418;8.728;2022-10-16T01:12:51;16.50;99.90
23562;DHT22;11959;49.418;8.728;2022-10-16T01:15:31;16.50;99.90
23562;DHT22;11959;49.418;8.728;2022-10-16T01:18:08;16.50;99.90
23562;DHT22;11959;49.418;8.728;2022-10-16T01:20:46;16.50;99.90
23562;DHT22;11959;49.418;8.728;2022-10-16T01:26:03;16.50;99.90
23562;DHT22;11959;49.418;8.728;2022-10-16T01:28:41;16.50;99.90
23562;DHT22;11959;49.418;8.728;2022-10-16T01:31:09;16.40;99.90
23562;DHT22;11959;49.418;8.728;2022-10-16T01:33:51;16.40;99.90
23562;DHT22;11959;49.418;8.728;2022-10-16T01:36:29;16.40;99.90
23562;DHT22;11959;49.418;8.728;2022-10-16T01:39:01;16.40;99.90
23562;DHT22;11959;49.418;8.728;2022-10-16T01:41:48;16.40;99.90
23562;DHT22;11959;49.418;8.728;2022-10-16T01:44:20;16.40;99.90
23562;DHT22;11959;49.418;8.728;2022-10-16T01:46:49;16.40;99.90
23562;DHT22;11959;49.418;8.728;2022-10-16T01:49:16;16.40;99.90
23562;DHT22;11959;49.418;8.728;2022-10-16T01:51:45;16.40;99.90
23562;DHT22;11959;49.418;8.728;2022-10-16T01:54:12;16.40;99.90
23562;DHT22;11959;49.418;8.728;2022-10-16T01:56:39;16.40;99.90
23562;DHT22;11959;49.418;8.728;2022-10-16T01:59:11;16.40;99.90
23562;DHT22;11959;49.418;8.728;2022-10-16T02:01:40;16.40;99.90
23562;DHT22;11959;49.418;8.728;2022-10-16T02:06:52;16.40;99.90
23562;DHT22;11959;49.418;8.728;2022-10-16T02:09:18;16.40;99.90
23562;DHT22;11959;49.418;8.728;2022-10-16T02:11:44;16.40;99.90
23562;DHT22;11959;49.418;8.728;2022-10-16T02:14:09;16.40;99.90
23562;DHT22;11959;49.418;8.728;2022-10-16T02:16:38;16.40;99.90
23562;DHT22;11959;49.418;8.728;2022-10-16T02:19:05;16.30;99.90
23562;DHT22;11959;49.418;8.728;2022-10-16T02:27:19;16.30;99.90
23562;DHT22;11959;49.418;8.728;2022-10-16T02:29:55;16.30;99.90
23562;DHT22;11959;49.418;8.728;2022-10-16T02:32:26;16.30;99.90
23562;DHT22;11959;49.418;8.728;2022-10-16T02:34:54;16.30;99.90
23562;DHT22;11959;49.418;8.728;2022-10-16T02:37:20;16.30;99.90
23562;DHT22;11959;49.418;8.728;2022-10-16T02:39:46;16.30;99.90
23562;DHT22;11959;49.418;8.728;2022-10-16T02:42:13;16.30;99.90
23562;DHT22;11959;49.418;8.728;2022-10-16T02:44:39;16.30;99.90
23562;DHT22;11959;49.418;8.728;2022-10-16T02:47:05;16.30;99.90
23562;DHT22;11959;49.418;8.728;2022-10-16T02:49:31;16.30;99.90
23562;DHT22;11959;49.418;8.728;2022-10-16T02:51:57;16.30;99.90
23562;DHT22;11959;49.418;8.728;2022-10-16T02:54:22;16.30;99.90
23562;DHT22;11959;49.418;8.728;2022-10-16T02:56:49;16.20;99.90
23562;DHT22;11959;49.418;8.728;2022-10-16T02:59:15;16.30;99.90
23562;DHT22;11959;49.418;8.728;2022-10-16T03:01:41;16.20;99.90
23562;DHT22;11959;49.418;8.728;2022-10-16T03:04:06;16.20;99.90
23562;DHT22;11959;49.418;8.728;2022-10-16T03:06:32;16.20;99.90
23562;DHT22;11959;49.418;8.728;2022-10-16T03:08:58;16.20;99.90
23562;DHT22;11959;49.418;8.728;2022-10-16T03:11:23;16.20;99.90
23562;DHT22;11959;49.418;8.728;2022-10-16T03:13:49;16.10;99.90
23562;DHT22;11959;49.418;8.728;2022-10-16T03:16:15;16.10;99.90
23562;DHT22;11959;49.418;8.728;2022-10-16T03:18:40;16.10;99.90
23562;DHT22;11959;49.418;8.728;2022-10-16T03:21:06;16.10;99.90
23562;DHT22;11959;49.418;8.728;2022-10-16T03:23:32;16.10;99.90
23562;DHT22;11959;49.418;8.728;2022-10-16T03:25:57;16.10;99.90
23562;DHT22;11959;49.418;8.728;2022-10-16T03:28:23;16.10;99.90
23562;DHT22;11959;49.418;8.728;2022-10-16T03:30:48;16.10;99.90
23562;DHT22;11959;49.418;8.728;2022-10-16T03:33:14;16.10;99.90
23562;DHT22;11959;49.418;8.728;2022-10-16T03:35:40;16.10;99.90
23562;DHT22;11959;49.418;8.728;2022-10-16T03:38:05;16.10;99.90
23562;DHT22;11959;49.418;8.728;2022-10-16T03:40:31;16.10;99.90
23562;DHT22;11959;49.418;8.728;2022-10-16T03:42:59;16.10;99.90
23562;DHT22;11959;49.418;8.728;2022-10-16T03:45:25;16.00;99.90
23562;DHT22;11959;49.418;8.728;2022-10-16T03:47:52;16.00;99.90
23562;DHT22;11959;49.418;8.728;2022-10-16T03:50:18;16.00;99.90
23562;DHT22;11959;49.418;8.728;2022-10-16T03:52:43;16.00;99.90
23562;DHT22;11959;49.418;8.728;2022-10-16T03:55:09;16.00;99.90
23562;DHT22;11959;49.418;8.728;2022-10-16T03:57:35;16.00;99.90
23562;DHT22;11959;49.418;8.728;2022-10-16T04:00:00;16.00;99.90
23562;DHT22;11959;49.418;8.728;2022-10-16T04:02:26;16.00;99.90
23562;DHT22;11959;49.418;8.728;2022-10-16T04:04:52;16.00;99.90
23562;DHT22;11959;49.418;8.728;2022-10-16T04:07:17;16.00;99.90
23562;DHT22;11959;49.418;8.728;2022-10-16T04:09:43;15.90;99.90
23562;DHT22;11959;49.418;8.728;2022-10-16T04:12:09;16.00;99.90
23562;DHT22;11959;49.418;8.728;2022-10-16T04:14:35;16.00;99.90
23562;DHT22;11959;49.418;8.728;2022-10-16T04:17:00;16.00;99.90
23562;DHT22;11959;49.418;8.728;2022-10-16T04:19:26;16.00;99.90
23562;DHT22;11959;49.418;8.728;2022-10-16T04:21:51;16.00;99.90
23562;DHT22;11959;49.418;8.728;2022-10-16T04:24:17;16.00;99.90
23562;DHT22;11959;49.418;8.728;2022-10-16T04:26:43;16.00;99.90
23562;DHT22;11959;49.418;8.728;2022-10-16T04:29:08;16.00;99.90
23562;DHT22;11959;49.418;8.728;2022-10-16T04:31:34;16.10;99.90
23562;DHT22;11959;49.418;8.728;2022-10-16T04:34:00;16.00;99.90
23562;DHT22;11959;49.418;8.728;2022-10-16T04:36:25;16.00;99.90
23562;DHT22;11959;49.418;8.728;2022-10-16T04:38:51;16.00;99.90
23562;DHT22;11959;49.418;8.728;2022-10-16T04:41:16;16.00;99.90
23562;DHT22;11959;49.418;8.728;2022-10-16T04:43:42;16.00;99.90
23562;DHT22;11959;49.418;8.728;2022-10-16T04:46:08;16.00;99.90
23562;DHT22;11959;49.418;8.728;2022-10-16T04:48:35;16.00;99.90
23562;DHT22;11959;49.418;8.728;2022-10-16T04:51:01;16.00;99.90
23562;DHT22;11959;49.418;8.728;2022-10-16T04:53:26;16.00;99.90
23562;DHT22;11959;49.418;8.728;2022-10-16T04:55:52;16.00;99.90
23562;DHT22;11959;49.418;8.728;2022-10-16T04:58:18;16.00;99.90
23562;DHT22;11959;49.418;8.728;2022-10-16T05:00:45;16.00;99.90
23562;DHT22;11959;49.418;8.728;2022-10-16T05:03:12;15.90;99.90
23562;DHT22;11959;49.418;8.728;2022-10-16T05:05:45;15.90;99.90
23562;DHT22;11959;49.418;8.728;2022-10-16T05:08:12;15.90;99.90
23562;DHT22;11959;49.418;8.728;2022-10-16T05:10:39;16.00;99.90
23562;DHT22;11959;49.418;8.728;2022-10-16T05:13:04;16.00;99.90
23562;DHT22;11959;49.418;8.728;2022-10-16T05:15:30;16.00;99.90
23562;DHT22;11959;49.418;8.728;2022-10-16T05:17:56;15.90;99.90
23562;DHT22;11959;49.418;8.728;2022-10-16T05:20:22;15.90;99.90
23562;DHT22;11959;49.418;8.728;2022-10-16T05:22:49;15.90;99.90
23562;DHT22;11959;49.418;8.728;2022-10-16T05:25:14;15.90;99.90
23562;DHT22;11959;49.418;8.728;2022-10-16T05:27:40;15.90;99.90
23562;DHT22;11959;49.418;8.728;2022-10-16T05:30:06;15.90;99.90
23562;DHT22;11959;49.418;8.728;2022-10-16T05:32:33;15.90;99.90
23562;DHT22;11959;49.418;8.728;2022-10-16T05:34:58;15.90;99.90
23562;DHT22;11959;49.418;8.728;2022-10-16T05:37:26;15.90;99.90
23562;DHT22;11959;49.418;8.728;2022-10-16T05:39:52;15.90;99.90
23562;DHT22;11959;49.418;8.728;2022-10-16T05:42:18;15.80;99.90
23562;DHT22;11959;49.418;8.728;2022-10-16T05:44:44;15.90;99.90
23562;DHT22;11959;49.418;8.728;2022-10-16T05:47:09;15.80;99.90
23562;DHT22;11959;49.418;8.728;2022-10-16T05:49:36;15.90;99.90
23562;DHT22;11959;49.418;8.728;2022-10-16T05:52:02;15.80;99.90
23562;DHT22;11959;49.418;8.728;2022-10-16T05:54:27;15.80;99.90
23562;DHT22;11959;49.418;8.728;2022-10-16T05:56:53;15.80;99.90
23562;DHT22;11959;49.418;8.728;2022-10-16T05:59:18;15.80;99.90
23562;DHT22;11959;49.418;8.728;2022-10-16T06:01:44;15.80;99.90
23562;DHT22;11959;49.418;8.728;2022-10-16T06:04:10;15.80;99.90
23562;DHT22;11959;49.418;8.728;2022-10-16T06:06:36;15.80;99.90
23562;DHT22;11959;49.418;8.728;2022-10-16T06:09:02;15.80;99.90
23562;DHT22;11959;49.418;8.728;2022-10-16T06:11:30;15.80;99.90
23562;DHT22;11959;49.418;8.728;2022-10-16T06:13:58;15.80;99.90
23562;DHT22;11959;49.418;8.728;2022-10-16T06:16:25;15.90;99.90
23562;DHT22;11959;49.418;8.728;2022-10-16T06:18:52;15.80;99.90
23562;DHT22;11959;49.418;8.728;2022-10-16T06:21:20;15.80;99.90
23562;DHT22;11959;49.418;8.728;2022-10-16T06:23:47;15.90;99.90
23562;DHT22;11959;49.418;8.728;2022-10-16T06:26:15;16.00;99.90
23562;DHT22;11959;49.418;8.728;2022-10-16T06:28:41;15.90;99.90
23562;DHT22;11959;49.418;8.728;2022-10-16T06:31:08;15.90;99.90
23562;DHT22;11959;49.418;8.728;2022-10-16T06:33:35;16.00;99.90
23562;DHT22;11959;49.418;8.728;2022-10-16T06:36:09;15.90;99.90
23562;DHT22;11959;49.418;8.728;2022-10-16T06:38:36;15.90;99.90
23562;DHT22;11959;49.418;8.728;2022-10-16T06:41:02;15.90;99.90
23562;DHT22;11959;49.418;8.728;2022-10-16T06:43:33;16.00;99.90
23562;DHT22;11959;49.418;8.728;2022-10-16T06:46:03;16.00;99.90
23562;DHT22;11959;49.418;8.728;2022-10-16T06:48:29;15.90;99.90
23562;DHT22;11959;49.418;8.728;2022-10-16T06:51:07;16.00;99.90
23562;DHT22;11959;49.418;8.728;2022-10-16T06:53:35;16.00;99.90
23562;DHT22;11959;49.418;8.728;2022-10-16T06:56:21;16.00;99.90
23562;DHT22;11959;49.418;8.728;2022-10-16T06:58:48;16.00;99.90
23562;DHT22;11959;49.418;8.728;2022-10-16T07:01:15;16.10;99.90
23562;DHT22;11959;49.418;8.728;2022-10-16T07:03:43;16.10;99.90
23562;DHT22;11959;49.418;8.728;2022-10-16T07:06:11;16.10;99.90
23562;DHT22;11959;49.418;8.728;2022-10-16T07:08:40;16.10;99.90
23562;DHT22;11959;49.418;8.728;2022-10-16T07:11:09;16.10;99.90
23562;DHT22;11959;49.418;8.728;2022-10-16T07:13:39;16.10;99.90
23562;DHT22;11959;49.418;8.728;2022-10-16T07:16:11;16.10;99.90
23562;DHT22;11959;49.418;8.728;2022-10-16T07:18:37;16.20;99.90
23562;DHT22;11959;49.418;8.728;2022-10-16T07:21:14;16.20;99.90
23562;DHT22;11959;49.418;8.728;2022-10-16T07:23:40;16.20;99.90
23562;DHT22;11959;49.418;8.728;2022-10-16T07:26:07;16.30;99.90
23562;DHT22;11959;49.418;8.728;2022-10-16T07:28:33;16.30;99.90
23562;DHT22;11959;49.418;8.728;2022-10-16T07:31:04;16.40;99.90
23562;DHT22;11959;49.418;8.728;2022-10-16T07:33:30;16.40;99.90
23562;DHT22;11959;49.418;8.728;2022-10-16T07:35:56;16.50;99.90
23562;DHT22;11959;49.418;8.728;2022-10-16T07:38:22;16.60;99.90
23562;DHT22;11959;49.418;8.728;2022-10-16T07:40:48;16.70;99.90
23562;DHT22;11959;49.418;8.728;2022-10-16T07:43:20;16.70;99.90
23562;DHT22;11959;49.418;8.728;2022-10-16T07:45:50;16.80;99.90
23562;DHT22;11959;49.418;8.728;2022-10-16T07:48:16;16.80;99.90
23562;DHT22;11959;49.418;8.728;2022-10-16T07:50:43;16.80;99.90
23562;DHT22;11959;49.418;8.728;2022-10-16T07:53:10;16.90;99.90
23562;DHT22;11959;49.418;8.728;2022-10-16T07:55:36;16.90;99.90
23562;DHT22;11959;49.418;8.728;2022-10-16T07:58:01;16.90;99.90
23562;DHT22;11959;49.418;8.728;2022-10-16T08:00:27;16.90;99.90
23562;DHT22;11959;49.418;8.728;2022-10-16T08:02:52;16.90;99.90
23562;DHT22;11959;49.418;8.728;2022-10-16T08:05:18;17.00;99.90
23562;DHT22;11959;49.418;8.728;2022-10-16T08:07:49;17.00;99.90
23562;DHT22;11959;49.418;8.728;2022-10-16T08:10:17;17.10;99.90
23562;DHT22;11959;49.418;8.728;2022-10-16T08:12:43;17.20;99.90
23562;DHT22;11959;49.418;8.728;2022-10-16T08:15:09;17.20;99.90
23562;DHT22;11959;49.418;8.728;2022-10-16T08:17:35;17.20;99.90
23562;DHT22;11959;49.418;8.728;2022-10-16T08:20:00;17.30;99.90
23562;DHT22;11959;49.418;8.728;2022-10-16T08:22:27;17.30;99.90
23562;DHT22;11959;49.418;8.728;2022-10-16T08:24:52;17.40;99.90
23562;DHT22;11959;49.418;8.728;2022-10-16T08:27:18;17.40;99.90
23562;DHT22;11959;49.418;8.728;2022-10-16T08:29:44;17.40;99.90
23562;DHT22;11959;49.418;8.728;2022-10-16T08:32:09;17.50;99.90
23562;DHT22;11959;49.418;8.728;2022-10-16T08:34:35;17.50;99.90
23562;DHT22;11959;49.418;8.728;2022-10-16T08:37:01;17.50;99.90
23562;DHT22;11959;49.418;8.728;2022-10-16T08:39:27;17.50;99.90
23562;DHT22;11959;49.418;8.728;2022-10-16T08:45:23;17.70;99.90
23562;DHT22;11959;49.418;8.728;2022-10-16T08:50:45;17.80;99.90
23562;DHT22;11959;49.418;8.728;2022-10-16T08:53:22;17.90;99.90
23562;DHT22;11959;49.418;8.728;2022-10-16T08:55:53;18.00;99.90
23562;DHT22;11959;49.418;8.728;2022-10-16T08:58:26;18.00;99.90
23562;DHT22;11959;49.418;8.728;2022-10-16T09:01:04;18.10;99.90
23562;DHT22;11959;49.418;8.728;2022-10-16T09:12:00;18.20;99.90
23562;DHT22;11959;49.418;8.728;2022-10-16T09:14:43;18.20;99.90
23562;DHT22;11959;49.418;8.728;2022-10-16T09:20:17;18.30;99.90
23562;DHT22;11959;49.418;8.728;2022-10-16T09:22:44;18.30;99.90
23562;DHT22;11959;49.418;8.728;2022-10-16T09:25:18;18.30;99.90
23562;DHT22;11959;49.418;8.728;2022-10-16T09:27:48;18.20;99.90
23562;DHT22;11959;49.418;8.728;2022-10-16T09:30:20;18.20;99.90
23562;DHT22;11959;49.418;8.728;2022-10-16T09:32:48;18.20;99.90
23562;DHT22;11959;49.418;8.728;2022-10-16T09:35:21;18.20;99.90
23562;DHT22;11959;49.418;8.728;2022-10-16T09:37:52;18.20;99.90
23562;DHT22;11959;49.418;8.728;2022-10-16T09:40:32;18.20;99.90
23562;DHT22;11959;49.418;8.728;2022-10-16T09:43:24;18.20;99.90
23562;DHT22;11959;49.418;8.728;2022-10-16T09:48:36;18.10;99.90
23562;DHT22;11959;49.418;8.728;2022-10-16T09:51:04;18.10;99.90
23562;DHT22;11959;49.418;8.728;2022-10-16T09:53:42;18.10;99.90
23562;DHT22;11959;49.418;8.728;2022-10-16T09:56:10;18.10;99.90
23562;DHT22;11959;49.418;8.728;2022-10-16T09:58:42;18.00;99.90
23562;DHT22;11959;49.418;8.728;2022-10-16T10:01:13;18.00;99.90
23562;DHT22;11959;49.418;8.728;2022-10-16T10:03:41;18.00;99.90
23562;DHT22;11959;49.418;8.728;2022-10-16T10:06:23;18.00;99.90
23562;DHT22;11959;49.418;8.728;2022-10-16T10:11:54;18.20;99.90
23562;DHT22;11959;49.418;8.728;2022-10-16T10:14:24;18.20;99.90
23562;DHT22;11959;49.418;8.728;2022-10-16T10:17:01;18.30;99.90
23562;DHT22;11959;49.418;8.728;2022-10-16T10:19:28;18.30;99.90
23562;DHT22;11959;49.418;8.728;2022-10-16T10:21:53;18.30;99.90
23562;DHT22;11959;49.418;8.728;2022-10-16T10:24:19;18.40;99.90
23562;DHT22;11959;49.418;8.728;2022-10-16T10:27:00;18.40;99.90
23562;DHT22;11959;49.418;8.728;2022-10-16T10:32:37;18.40;99.90
23562;DHT22;11959;49.418;8.728;2022-10-16T10:40:50;18.30;99.90
23562;DHT22;11959;49.418;8.728;2022-10-16T10:46:23;18.30;99.90
23562;DHT22;11959;49.418;8.728;2022-10-16T10:51:39;18.50;99.90
23562;DHT22;11959;49.418;8.728;2022-10-16T10:54:22;18.50;99.90
23562;DHT22;11959;49.418;8.728;2022-10-16T10:57:19;18.60;99.90
23562;DHT22;11959;49.418;8.728;2022-10-16T11:00:12;18.70;99.90
23562;DHT22;11959;49.418;8.728;2022-10-16T11:03:04;18.70;99.90
23562;DHT22;11959;49.418;8.728;2022-10-16T11:05:51;18.70;99.90
23562;DHT22;11959;49.418;8.728;2022-10-16T11:11:35;18.70;99.90
23562;DHT22;11959;49.418;8.728;2022-10-16T11:14:41;18.70;99.90
23562;DHT22;11959;49.418;8.728;2022-10-16T11:17:08;18.70;99.90
23562;DHT22;11959;49.418;8.728;2022-10-16T11:22:34;18.70;99.90
23562;DHT22;11959;49.418;8.728;2022-10-16T11:25:27;18.80;99.90
23562;DHT22;11959;49.418;8.728;2022-10-16T11:33:43;18.80;99.90
23562;DHT22;11959;49.418;8.728;2022-10-16T11:36:29;18.70;99.90
23562;DHT22;11959;49.418;8.728;2022-10-16T11:39:02;18.70;99.90
23562;DHT22;11959;49.418;8.728;2022-10-16T11:46:34;18.90;99.90
23562;DHT22;11959;49.418;8.728;2022-10-16T11:49:11;18.80;99.90
23562;DHT22;11959;49.418;8.728;2022-10-16T11:51:43;18.90;99.90
23562;DHT22;11959;49.418;8.728;2022-10-16T11:54:21;18.90;99.90
23562;DHT22;11959;49.418;8.728;2022-10-16T11:56:50;18.90;99.90
23562;DHT22;11959;49.418;8.728;2022-10-16T11:59:31;18.80;99.90
23562;DHT22;11959;49.418;8.728;2022-10-16T12:07:56;18.80;99.90
23562;DHT22;11959;49.418;8.728;2022-10-16T12:10:28;18.80;99.90
23562;DHT22;11959;49.418;8.728;2022-10-16T12:12:54;18.90;99.90
23562;DHT22;11959;49.418;8.728;2022-10-16T12:15:30;19.10;99.90
23562;DHT22;11959;49.418;8.728;2022-10-16T12:17:56;19.30;99.90
23562;DHT22;11959;49.418;8.728;2022-10-16T12:20:32;19.40;99.90
23562;DHT22;11959;49.418;8.728;2022-10-16T12:23:05;19.60;99.90
23562;DHT22;11959;49.418;8.728;2022-10-16T12:28:06;19.60;99.90
23562;DHT22;11959;49.418;8.728;2022-10-16T12:30:43;19.50;99.90
23562;DHT22;11959;49.418;8.728;2022-10-16T12:33:22;19.40;99.90
23562;DHT22;11959;49.418;8.728;2022-10-16T12:35:50;19.40;99.90
23562;DHT22;11959;49.418;8.728;2022-10-16T12:38:21;19.30;99.90
23562;DHT22;11959;49.418;8.728;2022-10-16T12:41:29;19.30;99.90
23562;DHT22;11959;49.418;8.728;2022-10-16T12:43:55;19.40;99.90
23562;DHT22;11959;49.418;8.728;2022-10-16T12:49:22;19.40;99.90
23562;DHT22;11959;49.418;8.728;2022-10-16T12:51:54;19.50;99.90
23562;DHT22;11959;49.418;8.728;2022-10-16T12:54:22;19.60;99.90
23562;DHT22;11959;49.418;8.728;2022-10-16T13:00:37;19.60;99.90
23562;DHT22;11959;49.418;8.728;2022-10-16T13:03:07;19.70;99.90
23562;DHT22;11959;49.418;8.728;2022-10-16T13:20:46;19.80;99.90
23562;DHT22;11959;49.418;8.728;2022-10-16T13:28:33;19.70;99.90
23562;DHT22;11959;49.418;8.728;2022-10-16T13:31:01;19.70;99.90
23562;DHT22;11959;49.418;8.728;2022-10-16T13:33:39;19.60;99.90
23562;DHT22;11959;49.418;8.728;2022-10-16T13:36:06;19.50;99.90
23562;DHT22;11959;49.418;8.728;2022-10-16T13:38:36;19.40;99.90
23562;DHT22;11959;49.418;8.728;2022-10-16T13:41:05;19.40;99.90
23562;DHT22;11959;49.418;8.728;2022-10-16T13:46:31;19.20;99.90
23562;DHT22;11959;49.418;8.728;2022-10-16T13:49:13;19.20;99.90
23562;DHT22;11959;49.418;8.728;2022-10-16T13:51:39;19.20;99.90
23562;DHT22;11959;49.418;8.728;2022-10-16T13:54:05;19.10;99.90
23562;DHT22;11959;49.418;8.728;2022-10-16T13:56:32;19.10;99.90
23562;DHT22;11959;49.418;8.728;2022-10-16T13:59:00;19.10;99.90
23562;DHT22;11959;49.418;8.728;2022-10-16T14:01:57;19.10;99.90
23562;DHT22;11959;49.418;8.728;2022-10-16T14:04:24;19.00;99.90
23562;DHT22;11959;49.418;8.728;2022-10-16T14:06:51;19.00;99.90
23562;DHT22;11959;49.418;8.728;2022-10-16T14:09:24;19.00;99.90
23562;DHT22;11959;49.418;8.728;2022-10-16T14:12:11;19.00;99.90
23562;DHT22;11959;49.418;8.728;2022-10-16T14:14:46;19.00;99.90
23562;DHT22;11959;49.418;8.728;2022-10-16T14:17:22;19.00;99.90
23562;DHT22;11959;49.418;8.728;2022-10-16T14:19:50;18.90;99.90
23562;DHT22;11959;49.418;8.728;2022-10-16T14:22:31;18.90;99.90
23562;DHT22;11959;49.418;8.728;2022-10-16T14:24:58;18.80;99.90
23562;DHT22;11959;49.418;8.728;2022-10-16T14:27:33;18.80;99.90
23562;DHT22;11959;49.418;8.728;2022-10-16T14:32:41;18.80;99.90
23562;DHT22;11959;49.418;8.728;2022-10-16T14:35:40;18.70;99.90
23562;DHT22;11959;49.418;8.728;2022-10-16T14:38:18;18.70;99.90
23562;DHT22;11959;49.418;8.728;2022-10-16T14:40:47;18.70;99.90
23562;DHT22;11959;49.418;8.728;2022-10-16T14:43:23;18.70;99.90
23562;DHT22;11959;49.418;8.728;2022-10-16T14:45:52;18.70;99.90
23562;DHT22;11959;49.418;8.728;2022-10-16T14:48:19;18.60;99.90
23562;DHT22;11959;49.418;8.728;2022-10-16T14:50:46;18.60;99.90
23562;DHT22;11959;49.418;8.728;2022-10-16T14:53:12;18.60;99.90
23562;DHT22;11959;49.418;8.728;2022-10-16T14:55:39;18.60;99.90
23562;DHT22;11959;49.418;8.728;2022-10-16T14:58:06;18.60;99.90
23562;DHT22;11959;49.418;8.728;2022-10-16T15:00:34;18.60;99.90
23562;DHT22;11959;49.418;8.728;2022-10-16T15:03:00;18.60;99.90
23562;DHT22;11959;49.418;8.728;2022-10-16T15:05:26;18.60;99.90
23562;DHT22;11959;49.418;8.728;2022-10-16T15:07:53;18.50;99.90
23562;DHT22;11959;49.418;8.728;2022-10-16T15:10:26;18.50;99.90
23562;DHT22;11959;49.418;8.728;2022-10-16T15:12:52;18.50;99.90
23562;DHT22;11959;49.418;8.728;2022-10-16T15:15:36;18.50;99.90
23562;DHT22;11959;49.418;8.728;2022-10-16T15:18:03;18.60;99.90
23562;DHT22;11959;49.418;8.728;2022-10-16T15:20:32;18.60;99.90
23562;DHT22;11959;49.418;8.728;2022-10-16T15:23:03;18.60;99.90
23562;DHT22;11959;49.418;8.728;2022-10-16T15:28:01;18.70;99.90
23562;DHT22;11959;49.418;8.728;2022-10-16T15:30:27;18.70;99.90
23562;DHT22;11959;49.418;8.728;2022-10-16T15:32:53;18.70;99.90
23562;DHT22;11959;49.418;8.728;2022-10-16T15:35:19;18.70;99.90
23562;DHT22;11959;49.418;8.728;2022-10-16T15:37:46;18.60;99.90
23562;DHT22;11959;49.418;8.728;2022-10-16T15:40:14;18.60;99.90
23562;DHT22;11959;49.418;8.728;2022-10-16T15:42:40;18.60;99.90
23562;DHT22;11959;49.418;8.728;2022-10-16T15:45:06;18.50;99.90
23562;DHT22;11959;49.418;8.728;2022-10-16T15:47:32;18.40;99.90
23562;DHT22;11959;49.418;8.728;2022-10-16T15:49:58;18.40;99.90
23562;DHT22;11959;49.418;8.728;2022-10-16T15:52:24;18.30;99.90
23562;DHT22;11959;49.418;8.728;2022-10-16T15:54:49;18.30;99.90
23562;DHT22;11959;49.418;8.728;2022-10-16T15:57:15;18.20;99.90
23562;DHT22;11959;49.418;8.728;2022-10-16T15:59:41;18.20;99.90
23562;DHT22;11959;49.418;8.728;2022-10-16T16:02:08;18.10;99.90
23562;DHT22;11959;49.418;8.728;2022-10-16T16:04:34;18.10;99.90
23562;DHT22;11959;49.418;8.728;2022-10-16T16:07:00;18.10;99.90
23562;DHT22;11959;49.418;8.728;2022-10-16T16:09:28;18.00;99.90
23562;DHT22;11959;49.418;8.728;2022-10-16T16:11:54;18.00;99.90
23562;DHT22;11959;49.418;8.728;2022-10-16T16:14:19;17.90;99.90
23562;DHT22;11959;49.418;8.728;2022-10-16T16:16:45;17.90;99.90
23562;DHT22;11959;49.418;8.728;2022-10-16T16:19:11;17.80;99.90
23562;DHT22;11959;49.418;8.728;2022-10-16T16:21:37;17.80;99.90
23562;DHT22;11959;49.418;8.728;2022-10-16T16:24:03;17.70;99.90
23562;DHT22;11959;49.418;8.728;2022-10-16T16:26:34;17.70;99.90
23562;DHT22;11959;49.418;8.728;2022-10-16T16:29:03;17.60;99.90
23562;DHT22;11959;49.418;8.728;2022-10-16T16:31:31;17.60;99.90
23562;DHT22;11959;49.418;8.728;2022-10-16T16:33:57;17.50;99.90
23562;DHT22;11959;49.418;8.728;2022-10-16T16:36:24;17.50;99.90
23562;DHT22;11959;49.418;8.728;2022-10-16T16:38:50;17.40;99.90
23562;DHT22;11959;49.418;8.728;2022-10-16T16:41:20;17.30;99.90
23562;DHT22;11959;49.418;8.728;2022-10-16T16:43:46;17.30;99.90
23562;DHT22;11959;49.418;8.728;2022-10-16T16:46:13;17.30;99.90
23562;DHT22;11959;49.418;8.728;2022-10-16T16:48:39;17.20;99.90
23562;DHT22;11959;49.418;8.728;2022-10-16T16:51:11;17.20;99.90
23562;DHT22;11959;49.418;8.728;2022-10-16T16:53:43;17.10;99.90
23562;DHT22;11959;49.418;8.728;2022-10-16T16:56:09;17.10;99.90
23562;DHT22;11959;49.418;8.728;2022-10-16T16:58:35;17.10;99.90
23562;DHT22;11959;49.418;8.728;2022-10-16T17:01:01;17.00;99.90
23562;DHT22;11959;49.418;8.728;2022-10-16T17:03:32;17.00;99.90
23562;DHT22;11959;49.418;8.728;2022-10-16T17:06:01;17.00;99.90
23562;DHT22;11959;49.418;8.728;2022-10-16T17:08:27;17.00;99.90
23562;DHT22;11959;49.418;8.728;2022-10-16T17:10:54;17.00;99.90
23562;DHT22;11959;49.418;8.728;2022-10-16T17:13:28;16.90;99.90
23562;DHT22;11959;49.418;8.728;2022-10-16T17:15:57;16.90;99.90
23562;DHT22;11959;49.418;8.728;2022-10-16T17:18:23;16.90;99.90
23562;DHT22;11959;49.418;8.728;2022-10-16T17:20:50;16.80;99.90
23562;DHT22;11959;49.418;8.728;2022-10-16T17:23:17;16.80;99.90
23562;DHT22;11959;49.418;8.728;2022-10-16T17:25:43;16.70;99.90
23562;DHT22;11959;49.418;8.728;2022-10-16T17:28:10;16.70;99.90
23562;DHT22;11959;49.418;8.728;2022-10-16T17:30:37;16.70;99.90
23562;DHT22;11959;49.418;8.728;2022-10-16T17:33:04;16.60;99.90
23562;DHT22;11959;49.418;8.728;2022-10-16T17:35:39;16.60;99.90
23562;DHT22;11959;49.418;8.728;2022-10-16T17:38:06;16.50;99.90